Time,TemperatureF,DewpointF,PressureIn,WindDirection,WindDirectionDegrees,WindSpeedMPH,WindSpeedGustMPH,Humidity,HourlyPrecipIn,Conditions,Clouds,dailyrainin,SoftwareType,DateUTC
2013-06-07 00:05:00,61.8,56.2,29.90,ESE,108,5.0,5.0,82,0.00,,,0.00,Wunderground v.1.15,2013-06-07 04:05:00,
2013-06-07 00:10:00,61.7,56.1,29.90,ESE,108,5.0,6.0,82,0.00,,,0.00,Wunderground v.1.15,2013-06-07 04:10:00,
2013-06-07 00:15:00,61.5,56.0,29.89,ESE,107,5.0,6.0,82,0.00,,,0.00,Wunderground v.1.15,2013-06-07 04:15:00,
2013-06-07 00:20:00,61.4,56.2,29.90,ESE,113,5.0,5.0,83,0.00,,,0.00,Wunderground v.1.15,2013-06-07 04:20:00,
2013-06-07 00:25:00,61.2,56.0,29.90,ESE,110,5.0,6.0,83,0.00,,,0.00,Wunderground v.1.15,2013-06-07 04:25:00,
2013-06-07 00:30:00,61.2,56.0,29.89,ESE,105,5.0,6.0,83,0.00,,,0.00,Wunderground v.1.15,2013-06-07 04:30:00,
2013-06-07 00:35:00,61.0,56.1,29.89,East,97,5.0,12.0,84,0.00,,,0.00,Wunderground v.1.15,2013-06-07 04:35:00,
2013-06-07 00:40:00,60.8,55.9,29.89,ESE,106,4.0,4.0,84,0.00,,,0.00,Wunderground v.1.15,2013-06-07 04:40:00,
2013-06-07 00:50:00,60.5,56.0,29.90,ESE,116,4.0,12.0,85,0.00,,,0.00,Wunderground v.1.15,2013-06-07 04:50:00,
2013-06-07 00:55:00,60.4,55.9,29.90,ESE,112,4.0,12.0,85,0.00,,,0.00,Wunderground v.1.15,2013-06-07 04:55:00,
2013-06-07 01:05:00,60.1,55.6,29.90,East,101,4.0,12.0,85,0.00,,,0.00,Wunderground v.1.15,2013-06-07 05:05:00,
2013-06-07 01:10:00,60.0,55.8,29.90,ESE,120,4.0,12.0,86,0.00,,,0.00,Wunderground v.1.15,2013-06-07 05:10:00,
2013-06-07 01:15:00,59.9,55.7,29.90,East,98,4.0,12.0,86,0.00,,,0.00,Wunderground v.1.15,2013-06-07 05:15:00,
2013-06-07 01:25:00,59.7,55.5,29.90,ESE,110,3.0,12.0,86,0.00,,,0.00,Wunderground v.1.15,2013-06-07 05:25:00,
2013-06-07 01:30:00,59.5,55.3,29.90,ESE,111,4.0,12.0,86,0.00,,,0.00,Wunderground v.1.15,2013-06-07 05:30:00,
2013-06-07 01:35:00,59.4,55.2,29.90,ESE,113,4.0,12.0,86,0.00,,,0.00,Wunderground v.1.15,2013-06-07 05:35:00,
2013-06-07 01:40:00,59.3,55.1,29.91,ESE,108,4.0,12.0,86,0.00,,,0.00,Wunderground v.1.15,2013-06-07 05:40:00,
2013-06-07 01:45:00,59.2,55.3,29.91,ESE,115,4.0,12.0,87,0.00,,,0.00,Wunderground v.1.15,2013-06-07 05:45:00,
2013-06-07 01:55:00,59.0,55.1,29.91,ESE,108,3.0,12.0,87,0.00,,,0.00,Wunderground v.1.15,2013-06-07 05:55:00,
2013-06-07 02:00:00,58.8,54.9,29.91,ESE,118,3.0,12.0,87,0.00,,,0.00,Wunderground v.1.15,2013-06-07 06:00:00,
2013-06-07 02:10:00,58.6,55.1,29.90,ESE,108,4.0,12.0,88,0.00,,,0.00,Wunderground v.1.15,2013-06-07 06:10:00,
2013-06-07 02:15:00,58.5,55.0,29.90,ESE,116,4.0,12.0,88,0.00,,,0.00,Wunderground v.1.15,2013-06-07 06:15:00,
2013-06-07 02:20:00,58.5,55.0,29.90,East,101,4.0,12.0,88,0.00,,,0.00,Wunderground v.1.15,2013-06-07 06:20:00,
2013-06-07 02:30:00,58.3,54.8,29.90,ESE,114,3.0,12.0,88,0.00,,,0.00,Wunderground v.1.15,2013-06-07 06:30:00,
2013-06-07 02:35:00,58.3,54.8,29.90,ESE,118,3.0,12.0,88,0.00,,,0.00,Wunderground v.1.15,2013-06-07 06:35:00,
2013-06-07 02:40:00,58.3,54.8,29.90,ESE,115,3.0,12.0,88,0.00,,,0.00,Wunderground v.1.15,2013-06-07 06:40:00,
2013-06-07 02:45:00,58.2,55.0,29.90,ESE,122,3.0,12.0,89,0.00,,,0.00,Wunderground v.1.15,2013-06-07 06:45:00,
2013-06-07 02:50:00,58.3,55.1,29.89,SE,124,3.0,12.0,89,0.00,,,0.00,Wunderground v.1.15,2013-06-07 06:50:00,
2013-06-07 02:55:00,58.3,55.1,29.90,ESE,120,3.0,12.0,89,0.00,,,0.00,Wunderground v.1.15,2013-06-07 06:55:00,
2013-06-07 03:00:00,58.2,55.0,29.89,SE,127,4.0,4.0,89,0.00,,,0.00,Wunderground v.1.15,2013-06-07 07:00:00,
2013-06-07 03:10:00,57.8,54.9,29.89,ESE,104,3.0,3.0,90,0.00,,,0.00,Wunderground v.1.15,2013-06-07 07:10:00,
2013-06-07 03:15:00,57.8,54.9,29.90,ESE,106,2.0,3.0,90,0.00,,,0.00,Wunderground v.1.15,2013-06-07 07:15:00,
2013-06-07 03:20:00,57.7,54.8,29.89,ESE,106,2.0,2.0,90,0.00,,,0.00,Wunderground v.1.15,2013-06-07 07:20:00,
2013-06-07 03:25:00,57.6,54.7,29.89,ESE,103,2.0,2.0,90,0.00,,,0.00,Wunderground v.1.15,2013-06-07 07:25:00,
2013-06-07 03:30:00,57.5,54.6,29.90,ESE,103,2.0,2.0,90,0.00,,,0.00,Wunderground v.1.15,2013-06-07 07:30:00,
2013-06-07 03:40:00,57.4,54.8,29.89,ESE,103,2.0,7.0,91,0.00,,,0.00,Wunderground v.1.15,2013-06-07 07:40:00,
2013-06-07 03:45:00,57.2,54.6,29.89,ESE,103,2.0,7.0,91,0.00,,,0.00,Wunderground v.1.15,2013-06-07 07:45:00,
2013-06-07 03:50:00,57.1,54.5,29.89,ESE,103,2.0,7.0,91,0.00,,,0.00,Wunderground v.1.15,2013-06-07 07:50:00,
2013-06-07 03:55:00,57.0,54.4,29.89,ESE,103,1.0,7.0,91,0.00,,,0.00,Wunderground v.1.15,2013-06-07 07:55:00,
2013-06-07 04:05:00,57.0,54.4,29.90,ESE,103,1.0,7.0,91,0.00,,,0.00,Wunderground v.1.15,2013-06-07 08:05:00,
2013-06-07 04:15:00,56.8,54.5,29.90,East,95,3.0,7.0,92,0.00,,,0.00,Wunderground v.1.15,2013-06-07 08:15:00,
2013-06-07 04:20:00,56.8,54.5,29.90,East,97,3.0,3.0,92,0.00,,,0.00,Wunderground v.1.15,2013-06-07 08:20:00,
2013-06-07 04:25:00,56.8,54.5,29.90,East,96,2.0,7.0,92,0.00,,,0.00,Wunderground v.1.15,2013-06-07 08:25:00,
2013-06-07 04:30:00,56.8,54.5,29.90,East,97,2.0,7.0,92,0.00,,,0.00,Wunderground v.1.15,2013-06-07 08:30:00,
2013-06-07 04:35:00,56.9,54.6,29.90,East,96,2.0,7.0,92,0.00,,,0.00,Wunderground v.1.15,2013-06-07 08:35:00,
2013-06-07 04:45:00,56.9,54.6,29.90,East,97,2.0,7.0,92,0.00,,,0.00,Wunderground v.1.15,2013-06-07 08:45:00,
2013-06-07 04:50:00,56.8,54.5,29.90,East,91,3.0,7.0,92,0.00,,,0.00,Wunderground v.1.15,2013-06-07 08:50:00,
2013-06-07 04:55:00,56.6,54.3,29.90,ESE,103,3.0,7.0,92,0.00,,,0.00,Wunderground v.1.15,2013-06-07 08:55:00,
2013-06-07 05:00:00,56.4,54.1,29.90,ESE,110,3.0,7.0,92,0.00,,,0.00,Wunderground v.1.15,2013-06-07 09:00:00,
2013-06-07 05:10:00,56.2,53.9,29.90,East,96,3.0,3.0,92,0.00,,,0.00,Wunderground v.1.15,2013-06-07 09:10:00,
2013-06-07 05:20:00,56.1,54.1,29.90,ESE,110,2.0,7.0,93,0.00,,,0.00,Wunderground v.1.15,2013-06-07 09:20:00,
2013-06-07 05:25:00,56.0,54.0,29.90,ESE,109,2.0,7.0,93,0.00,,,0.00,Wunderground v.1.15,2013-06-07 09:25:00,
2013-06-07 05:30:00,55.9,53.9,29.90,ESE,112,3.0,7.0,93,0.00,,,0.00,Wunderground v.1.15,2013-06-07 09:30:00,
2013-06-07 05:35:00,55.8,53.8,29.90,ESE,122,3.0,7.0,93,0.00,,,0.00,Wunderground v.1.15,2013-06-07 09:35:00,
2013-06-07 05:40:00,55.7,53.7,29.90,SE,127,4.0,7.0,93,0.00,,,0.00,Wunderground v.1.15,2013-06-07 09:40:00,
2013-06-07 05:45:00,55.7,53.7,29.90,ESE,112,4.0,7.0,93,0.00,,,0.00,Wunderground v.1.15,2013-06-07 09:45:00,
2013-06-07 05:55:00,55.5,53.5,29.90,ESE,116,3.0,7.0,93,0.00,,,0.00,Wunderground v.1.15,2013-06-07 09:55:00,
2013-06-07 06:00:00,55.4,53.7,29.91,ESE,106,1.0,7.0,94,0.00,,,0.00,Wunderground v.1.15,2013-06-07 10:00:00,
2013-06-07 06:05:00,55.4,53.7,29.90,ESE,114,2.0,7.0,94,0.00,,,0.00,Wunderground v.1.15,2013-06-07 10:05:00,
2013-06-07 06:15:00,55.5,53.8,29.91,East,91,3.0,7.0,94,0.00,,,0.00,Wunderground v.1.15,2013-06-07 10:15:00,
2013-06-07 06:20:00,55.5,53.8,29.91,East,101,3.0,7.0,94,0.00,,,0.00,Wunderground v.1.15,2013-06-07 10:20:00,
2013-06-07 06:30:00,55.5,53.8,29.91,ESE,110,4.0,7.0,94,0.00,,,0.00,Wunderground v.1.15,2013-06-07 10:30:00,
2013-06-07 06:35:00,55.5,53.8,29.91,SE,129,5.0,7.0,94,0.00,,,0.00,Wunderground v.1.15,2013-06-07 10:35:00,
2013-06-07 06:40:00,55.5,53.8,29.91,SE,131,5.0,5.0,94,0.00,,,0.00,Wunderground v.1.15,2013-06-07 10:40:00,
2013-06-07 06:45:00,55.5,53.8,29.91,ESE,123,5.0,6.0,94,0.00,,,0.00,Wunderground v.1.15,2013-06-07 10:45:00,
2013-06-07 06:50:00,55.6,53.9,29.91,ESE,115,5.0,7.0,94,0.00,,,0.00,Wunderground v.1.15,2013-06-07 10:50:00,
2013-06-07 07:00:00,55.8,53.8,29.91,ESE,104,4.0,4.0,93,0.00,,,0.00,Wunderground v.1.15,2013-06-07 11:00:00,
2013-06-07 07:10:00,56.0,54.0,29.91,ESE,111,4.0,5.0,93,0.00,,,0.00,Wunderground v.1.15,2013-06-07 11:10:00,
2013-06-07 07:20:00,56.1,54.1,29.91,ESE,114,4.0,4.0,93,0.00,,,0.00,Wunderground v.1.15,2013-06-07 11:20:00,
2013-06-07 07:25:00,56.2,53.9,29.91,ESE,115,4.0,4.0,92,0.00,,,0.00,Wunderground v.1.15,2013-06-07 11:25:00,
2013-06-07 07:35:00,56.7,54.4,29.91,ESE,123,5.0,7.0,92,0.00,,,0.00,Wunderground v.1.15,2013-06-07 11:35:00,
2013-06-07 07:40:00,56.9,54.3,29.91,ESE,113,6.0,6.0,91,0.00,,,0.00,Wunderground v.1.15,2013-06-07 11:40:00,
2013-06-07 07:45:00,57.1,54.2,29.91,SE,124,6.0,7.0,90,0.00,,,0.00,Wunderground v.1.15,2013-06-07 11:45:00,
2013-06-07 07:50:00,57.3,54.4,29.91,SE,124,6.0,7.0,90,0.00,,,0.00,Wunderground v.1.15,2013-06-07 11:50:00,
2013-06-07 07:55:00,57.4,54.5,29.91,ESE,121,5.0,7.0,90,0.00,,,0.00,Wunderground v.1.15,2013-06-07 11:55:00,
2013-06-07 08:00:00,57.7,54.5,29.91,SE,136,5.0,5.0,89,0.00,,,0.00,Wunderground v.1.15,2013-06-07 12:00:00,
2013-06-07 08:10:00,58.4,54.9,29.91,ESE,117,6.0,7.0,88,0.00,,,0.00,Wunderground v.1.15,2013-06-07 12:10:00,
2013-06-07 08:15:00,58.6,54.7,29.91,ESE,113,6.0,8.0,87,0.00,,,0.00,Wunderground v.1.15,2013-06-07 12:15:00,
2013-06-07 08:25:00,58.6,54.4,29.92,SE,124,4.0,7.0,86,0.00,,,0.00,Wunderground v.1.15,2013-06-07 12:25:00,
2013-06-07 08:30:00,58.5,54.0,29.92,East,96,5.0,7.0,85,0.00,,,0.00,Wunderground v.1.15,2013-06-07 12:30:00,
2013-06-07 08:35:00,58.6,54.1,29.92,SE,145,5.0,7.0,85,0.00,,,0.00,Wunderground v.1.15,2013-06-07 12:35:00,
2013-06-07 08:45:00,59.2,54.7,29.92,ESE,108,5.0,7.0,85,0.00,,,0.00,Wunderground v.1.15,2013-06-07 12:45:00,
2013-06-07 08:50:00,59.3,54.5,29.92,SE,126,5.0,5.0,84,0.00,,,0.00,Wunderground v.1.15,2013-06-07 12:50:00,
2013-06-07 08:55:00,59.8,54.6,29.92,ESE,117,5.0,7.0,83,0.00,,,0.00,Wunderground v.1.15,2013-06-07 12:55:00,
2013-06-07 09:00:00,59.8,54.6,29.93,SE,131,5.0,7.0,83,0.00,,,0.00,Wunderground v.1.15,2013-06-07 13:00:00,
2013-06-07 09:05:00,60.2,55.0,29.93,ESE,106,5.0,7.0,83,0.00,,,0.00,Wunderground v.1.15,2013-06-07 13:05:00,
2013-06-07 09:15:00,60.3,54.8,29.93,ESE,117,4.0,5.0,82,0.00,,,0.00,Wunderground v.1.15,2013-06-07 13:15:00,
2013-06-07 09:20:00,60.4,54.5,29.93,SE,127,4.0,7.0,81,0.00,,,0.00,Wunderground v.1.15,2013-06-07 13:20:00,
2013-06-07 09:30:00,61.3,55.1,29.93,SE,139,4.0,4.0,80,0.00,,,0.00,Wunderground v.1.15,2013-06-07 13:30:00,